Auburn Hills, Michigan
Current Conditions -  °F | °C
As of 7:55 AM on Tuesday 21 Oct 2014 (Local Time) from KVLL Reporting Station
Overcast Overcast  
Wind Chill: 45°   Ceiling: 2400
Heat Index: 49°   Visibility: 10mi
Dew Point: 44°   Wind: 10mph
Humidity: 82%   Direction: 340°NNW
Pressure: 29.96"   Gusts: NA
Location:  42.67°N, 83.22°W
Report Text: KVLL 211155Z AUTO 34009KT 10SM SCT020 OVC024 10/07 A2996 RMK AO2 T00950065 10097 20089
Loading
Personal Weather Stations






























Interactive Weather Map
Tropical Storm Tracking
New forecast layout! Learn more

10-Day Weather Forecast

Advertisements
Track Severe Weather on mobile